createdAt,value
2022-11-20T00:01:32.763Z,-6.90
2022-11-20T00:04:03.122Z,-6.10
2022-11-20T00:06:32.325Z,-7.00
2022-11-20T00:09:04.118Z,-7.10
2022-11-20T00:11:34.508Z,-5.60
2022-11-20T00:14:06.535Z,-5.90
2022-11-20T00:16:36.176Z,-7.00
2022-11-20T00:19:06.901Z,-6.20
2022-11-20T00:21:35.777Z,-7.10
2022-11-20T00:24:07.171Z,-6.80
2022-11-20T00:26:36.441Z,-7.00
2022-11-20T00:29:05.913Z,-5.10
2022-11-20T00:31:35.600Z,-6.80
2022-11-20T00:34:04.811Z,-5.60
2022-11-20T00:36:36.977Z,-5.90
2022-11-20T00:39:08.604Z,-7.20
2022-11-20T00:41:37.864Z,-7.30
2022-11-20T00:44:07.880Z,-7.30
2022-11-20T00:46:37.180Z,-7.40
2022-11-20T00:49:06.500Z,-7.30
2022-11-20T00:51:35.707Z,-7.30
2022-11-20T00:54:04.953Z,-7.20
2022-11-20T00:56:38.261Z,-7.60
2022-11-20T00:59:07.508Z,-7.50
2022-11-20T01:01:39.833Z,-6.10
2022-11-20T01:04:09.110Z,-7.50
2022-11-20T01:06:39.498Z,-7.50
2022-11-20T01:09:11.043Z,-6.90
2022-11-20T01:11:44.116Z,-7.00
2022-11-20T01:14:15.993Z,-7.10
2022-11-20T01:16:46.903Z,-7.40
2022-11-20T01:19:18.567Z,-7.30
2022-11-20T01:21:50.433Z,-7.60
2022-11-20T01:24:22.295Z,-6.50
2022-11-20T01:26:54.073Z,-7.50
2022-11-20T01:29:26.275Z,-7.60
2022-11-20T01:31:56.001Z,-7.60
2022-11-20T01:34:26.400Z,-6.50
2022-11-20T01:36:56.385Z,-7.00
2022-11-20T01:39:27.089Z,-7.20
2022-11-20T01:42:15.620Z,-7.00
2022-11-20T01:44:53.780Z,-6.80
2022-11-20T01:47:32.772Z,-6.90
2022-11-20T01:50:07.815Z,-6.90
2022-11-20T01:52:42.270Z,-5.80
2022-11-20T01:55:14.447Z,-7.10
2022-11-20T01:57:48.241Z,-7.20
2022-11-20T02:00:19.634Z,-7.30
2022-11-20T02:02:53.921Z,-7.30
2022-11-20T02:05:29.807Z,-7.20
2022-11-20T02:08:00.820Z,-7.00
2022-11-20T02:10:30.982Z,-5.50
2022-11-20T02:13:21.652Z,-6.60
2022-11-20T02:15:51.289Z,-6.70
2022-11-20T02:18:23.122Z,-6.70
2022-11-20T02:20:56.517Z,-6.70
2022-11-20T02:23:34.286Z,-6.60
2022-11-20T02:26:08.640Z,-6.40
2022-11-20T02:28:38.231Z,-6.60
2022-11-20T02:31:07.516Z,-6.70
2022-11-20T02:33:36.632Z,-6.80
2022-11-20T02:36:06.103Z,-6.00
2022-11-20T02:38:35.460Z,-6.80
2022-11-20T02:41:06.006Z,-6.80
2022-11-20T02:43:35.466Z,-6.70
2022-11-20T02:46:04.461Z,-6.70
2022-11-20T02:48:34.078Z,-6.70
2022-11-20T02:51:03.565Z,-6.80
2022-11-20T02:53:32.801Z,-6.70
2022-11-20T02:56:02.087Z,-6.80
2022-11-20T02:58:33.851Z,-6.90
2022-11-20T03:01:03.131Z,-5.60
2022-11-20T03:03:32.379Z,-7.10
2022-11-20T03:06:02.345Z,-6.90
2022-11-20T03:08:31.582Z,-7.30
2022-11-20T03:11:05.963Z,-7.50
2022-11-20T03:13:37.332Z,-6.30
2022-11-20T03:16:11.638Z,-7.70
2022-11-20T03:18:41.448Z,-7.70
2022-11-20T03:21:11.300Z,-7.70
2022-11-20T03:23:40.593Z,-7.80
2022-11-20T03:26:14.322Z,-7.80
2022-11-20T03:28:48.354Z,-7.80
2022-11-20T03:31:19.542Z,-7.90
2022-11-20T03:33:49.326Z,-7.90
2022-11-20T03:36:20.045Z,-7.80
2022-11-20T03:38:49.120Z,-7.80
2022-11-20T03:41:21.638Z,-7.90
2022-11-20T03:43:54.042Z,-7.90
2022-11-20T03:46:23.479Z,-7.90
2022-11-20T03:48:53.721Z,-7.90
2022-11-20T03:51:24.793Z,-8.00
2022-11-20T03:53:56.539Z,-8.00
2022-11-20T03:56:27.522Z,-6.70
2022-11-20T03:58:59.903Z,-8.10
2022-11-20T04:01:30.539Z,-8.00
2022-11-20T04:04:00.132Z,-7.70
2022-11-20T04:06:31.275Z,-7.90
2022-11-20T04:09:01.545Z,-7.80
2022-11-20T04:11:34.858Z,-7.90
2022-11-20T04:14:08.048Z,-7.60
2022-11-20T04:16:38.838Z,-7.10
2022-11-20T04:19:11.928Z,-8.00
2022-11-20T04:21:40.964Z,-8.00
2022-11-20T04:24:11.477Z,-8.10
2022-11-20T04:26:43.591Z,-8.00
2022-11-20T04:29:15.548Z,-7.80
2022-11-20T04:31:44.703Z,-7.90
2022-11-20T04:34:15.318Z,-8.00
2022-11-20T04:36:44.471Z,-8.00
2022-11-20T04:39:18.154Z,-7.90
2022-11-20T04:41:47.556Z,-7.80
2022-11-20T04:44:18.172Z,-8.00
2022-11-20T04:46:47.578Z,-7.90
2022-11-20T04:49:16.911Z,-7.50
2022-11-20T04:51:46.215Z,-7.80
2022-11-20T04:54:15.162Z,-7.80
2022-11-20T04:56:44.889Z,-7.90
2022-11-20T04:59:14.125Z,-8.00
2022-11-20T05:01:45.259Z,-8.20
2022-11-20T05:04:14.587Z,-8.30
2022-11-20T05:06:43.469Z,-8.40
2022-11-20T05:09:12.533Z,-8.40
2022-11-20T05:11:42.125Z,-7.80
2022-11-20T05:14:11.446Z,-7.40
2022-11-20T05:16:40.786Z,-8.40
2022-11-20T05:19:12.118Z,-8.40
2022-11-20T05:21:41.575Z,-8.30
2022-11-20T05:24:10.955Z,-8.30
2022-11-20T05:26:40.464Z,-8.30
2022-11-20T05:29:09.791Z,-8.40
2022-11-20T05:31:39.171Z,-8.30
2022-11-20T05:34:08.210Z,-8.20
2022-11-20T05:36:39.080Z,-8.30
2022-11-20T05:39:08.352Z,-8.30
2022-11-20T05:41:37.536Z,-8.10
2022-11-20T05:44:06.818Z,-7.30
2022-11-20T05:46:35.925Z,-8.10
2022-11-20T05:49:05.244Z,-7.90
2022-11-20T05:51:34.182Z,-8.30
2022-11-20T05:54:05.563Z,-8.40
2022-11-20T05:56:34.901Z,-8.30
2022-11-20T05:59:03.956Z,-7.10
2022-11-20T06:01:33.498Z,-8.30
2022-11-20T06:04:02.818Z,-8.30
2022-11-20T06:06:32.176Z,-8.40
2022-11-20T06:09:02.015Z,-8.20
2022-11-20T06:11:32.895Z,-8.20
2022-11-20T06:14:04.032Z,-8.30
2022-11-20T06:16:33.271Z,-8.20
2022-11-20T06:19:02.924Z,-8.30
2022-11-20T06:21:33.470Z,-8.30
2022-11-20T06:24:02.616Z,-8.10
2022-11-20T06:26:33.791Z,-8.40
2022-11-20T06:29:03.092Z,-8.40
2022-11-20T06:31:34.293Z,-8.50
2022-11-20T06:34:03.902Z,-8.50
2022-11-20T06:36:33.209Z,-7.40
2022-11-20T06:39:02.852Z,-7.20
2022-11-20T06:41:33.589Z,-8.40
2022-11-20T06:44:02.930Z,-8.30
2022-11-20T06:46:33.329Z,-8.30
2022-11-20T06:49:02.775Z,-8.20
2022-11-20T06:51:32.062Z,-8.20
2022-11-20T06:54:02.224Z,-7.30
2022-11-20T06:56:33.451Z,-8.00
2022-11-20T06:59:07.433Z,-7.20
2022-11-20T07:01:36.990Z,-7.90
2022-11-20T07:04:06.735Z,-7.80
2022-11-20T07:06:36.061Z,-7.70
2022-11-20T07:09:09.896Z,-6.20
2022-11-20T07:11:43.404Z,-7.50
2022-11-20T07:14:18.583Z,-7.30
2022-11-20T07:16:48.281Z,-7.00
2022-11-20T07:19:17.582Z,-6.80
2022-11-20T07:21:46.790Z,-6.20
2022-11-20T07:24:16.053Z,-6.50
2022-11-20T07:26:50.814Z,-5.10
2022-11-20T07:29:21.284Z,-6.20
2022-11-20T07:31:50.966Z,-6.10
2022-11-20T07:34:21.287Z,-6.00
2022-11-20T07:36:50.525Z,-5.80
2022-11-20T07:39:20.175Z,-5.50
2022-11-20T07:41:50.742Z,-5.40
2022-11-20T07:44:20.274Z,-4.40
2022-11-20T07:46:49.050Z,-4.10
2022-11-20T07:49:18.558Z,-4.70
2022-11-20T07:51:51.607Z,-4.20
2022-11-20T07:54:21.518Z,-4.30
2022-11-20T07:56:52.585Z,-3.00
2022-11-20T07:59:21.926Z,-3.90
2022-11-20T08:01:51.069Z,-3.70
2022-11-20T08:04:20.402Z,-2.70
2022-11-20T08:06:48.950Z,-3.30
2022-11-20T08:09:17.883Z,-2.90
2022-11-20T08:12:04.217Z,-2.80
2022-11-20T08:14:35.160Z,-2.50
2022-11-20T08:17:04.255Z,-2.30
2022-11-20T08:19:33.519Z,-2.10
2022-11-20T08:22:03.314Z,-1.80
2022-11-20T08:24:34.854Z,-1.80
2022-11-20T08:27:03.837Z,-1.40
2022-11-20T08:29:34.402Z,-1.00
2022-11-20T08:32:03.150Z,0.30
2022-11-20T08:34:32.026Z,0.10
2022-11-20T08:37:01.263Z,0.20
2022-11-20T08:39:30.000Z,0.80
2022-11-20T08:41:59.213Z,0.90
2022-11-20T08:44:28.122Z,2.00
2022-11-20T08:46:59.266Z,3.40
2022-11-20T08:49:28.237Z,5.10
2022-11-20T08:51:56.864Z,5.10
2022-11-20T08:54:26.759Z,4.70
2022-11-20T08:56:55.432Z,4.60
2022-11-20T08:59:44.074Z,5.20
2022-11-20T09:02:14.832Z,4.20
2022-11-20T09:04:43.427Z,3.40
2022-11-20T09:07:14.037Z,7.40
2022-11-20T09:09:42.926Z,6.20
2022-11-20T09:12:13.751Z,9.20
2022-11-20T09:14:43.110Z,9.40
2022-11-20T09:17:16.759Z,6.80
2022-11-20T09:19:45.938Z,5.70
2022-11-20T09:22:15.188Z,6.10
2022-11-20T09:24:44.611Z,8.50
2022-11-20T09:27:13.524Z,8.10
2022-11-20T09:29:42.590Z,6.90
2022-11-20T09:32:11.867Z,7.10
2022-11-20T09:34:43.647Z,8.80
2022-11-20T09:37:12.906Z,9.00
2022-11-20T09:39:42.449Z,8.10
2022-11-20T09:42:30.677Z,7.70
2022-11-20T09:45:25.522Z,7.70
2022-11-20T09:48:31.914Z,9.10
2022-11-20T09:51:13.210Z,6.80
2022-11-20T09:53:54.532Z,6.80
2022-11-20T09:56:24.615Z,6.60
2022-11-20T09:58:55.850Z,8.80
2022-11-20T10:01:40.554Z,8.40
2022-11-20T10:04:18.481Z,9.20
2022-11-20T10:07:17.167Z,9.60
2022-11-20T10:09:52.438Z,10.10
2022-11-20T10:12:28.430Z,10.10
2022-11-20T10:15:15.921Z,10.20
2022-11-20T10:18:13.954Z,9.50
2022-11-20T10:20:51.570Z,10.60
2022-11-20T10:23:47.357Z,9.90
2022-11-20T10:26:25.001Z,10.40
2022-11-20T10:29:11.100Z,11.50
2022-11-20T10:31:43.109Z,10.50
2022-11-20T10:34:23.486Z,9.20
2022-11-20T10:36:59.021Z,11.50
2022-11-20T10:39:37.101Z,13.00
2022-11-20T10:42:13.801Z,11.40
2022-11-20T10:45:07.561Z,12.30
2022-11-20T10:47:38.824Z,11.90
2022-11-20T10:50:14.500Z,11.30
2022-11-20T10:52:59.223Z,12.80
2022-11-20T10:55:35.957Z,12.40
2022-11-20T10:58:14.041Z,13.90
2022-11-20T11:00:43.730Z,11.80
2022-11-20T11:03:26.570Z,11.10
2022-11-20T11:06:01.520Z,12.40
2022-11-20T11:08:36.342Z,12.70
2022-11-20T11:11:24.637Z,12.40
2022-11-20T11:13:53.842Z,11.20
2022-11-20T11:16:25.128Z,13.20
2022-11-20T11:19:05.796Z,12.70
2022-11-20T11:21:35.522Z,13.60
2022-11-20T11:24:34.822Z,13.60
2022-11-20T11:27:00.755Z,13.10
2022-11-20T11:29:30.856Z,11.60
2022-11-20T11:32:08.290Z,14.50
2022-11-20T11:34:38.112Z,12.00
2022-11-20T11:37:08.362Z,12.80
2022-11-20T11:39:38.531Z,15.60
2022-11-20T11:42:11.426Z,14.10
2022-11-20T11:45:03.589Z,14.60
2022-11-20T11:47:34.475Z,14.60
2022-11-20T11:50:06.015Z,14.00
2022-11-20T11:52:40.611Z,12.60
2022-11-20T11:55:18.310Z,10.20
2022-11-20T11:57:54.630Z,13.30
2022-11-20T12:00:25.183Z,13.00
2022-11-20T12:03:07.240Z,11.90
2022-11-20T12:05:44.287Z,13.40
2022-11-20T12:08:21.698Z,13.80
2022-11-20T12:10:58.571Z,15.00
2022-11-20T12:13:47.688Z,14.70
2022-11-20T12:16:20.710Z,16.60
2022-11-20T12:18:52.831Z,13.90
2022-11-20T12:21:32.035Z,15.60
2022-11-20T12:24:33.345Z,14.20
2022-11-20T12:27:20.415Z,15.20
2022-11-20T12:29:59.980Z,15.40
2022-11-20T12:33:02.127Z,15.10
2022-11-20T12:35:50.795Z,15.60
2022-11-20T12:38:58.077Z,15.80
2022-11-20T12:42:01.168Z,15.90
2022-11-20T12:45:05.290Z,14.10
2022-11-20T12:47:54.920Z,15.10
2022-11-20T12:50:53.180Z,15.30
2022-11-20T12:53:34.582Z,12.30
2022-11-20T12:56:14.467Z,13.20
2022-11-20T12:58:51.922Z,13.40
2022-11-20T13:01:43.881Z,14.90
2022-11-20T13:04:27.199Z,13.90
2022-11-20T13:06:58.981Z,11.60
2022-11-20T13:09:29.792Z,14.10
2022-11-20T13:12:06.788Z,14.30
2022-11-20T13:14:42.993Z,14.00
2022-11-20T13:17:25.490Z,13.80
2022-11-20T13:19:59.929Z,14.10
2022-11-20T13:22:32.744Z,13.10
2022-11-20T13:25:02.264Z,12.70
2022-11-20T13:27:32.375Z,14.00
2022-11-20T13:30:18.893Z,13.60
2022-11-20T13:32:56.389Z,11.00
2022-11-20T13:35:33.590Z,9.50
2022-11-20T13:38:08.779Z,10.90
2022-11-20T13:40:41.173Z,10.70
2022-11-20T13:43:26.302Z,9.80
2022-11-20T13:46:01.247Z,6.60
2022-11-20T13:48:34.893Z,6.30
2022-11-20T13:51:33.384Z,5.10
2022-11-20T13:54:38.763Z,4.90
2022-11-20T13:57:35.947Z,4.30
2022-11-20T14:00:14.448Z,4.30
2022-11-20T14:02:44.910Z,4.00
2022-11-20T14:05:23.101Z,3.60
2022-11-20T14:07:55.830Z,3.30
2022-11-20T14:10:31.767Z,3.30
2022-11-20T14:13:12.996Z,3.30
2022-11-20T14:15:45.183Z,3.20
2022-11-20T14:18:24.648Z,3.00
2022-11-20T14:20:54.353Z,2.90
2022-11-20T14:23:31.251Z,2.90
2022-11-20T14:26:00.730Z,2.80
2022-11-20T14:28:31.977Z,2.60
2022-11-20T14:31:01.018Z,2.40
2022-11-20T14:33:31.205Z,2.30
2022-11-20T14:36:01.875Z,2.20
2022-11-20T14:38:35.833Z,2.10
2022-11-20T14:41:22.393Z,1.60
2022-11-20T14:43:57.736Z,0.60
2022-11-20T14:46:28.054Z,0.40
2022-11-20T14:49:00.647Z,0.40
2022-11-20T14:51:34.913Z,0.30
2022-11-20T14:54:13.788Z,0.00
2022-11-20T14:56:43.119Z,-0.50
2022-11-20T14:59:13.028Z,-0.60
2022-11-20T15:01:42.639Z,-0.70
2022-11-20T15:04:14.045Z,-0.90
2022-11-20T15:06:55.479Z,-1.10
2022-11-20T15:09:30.205Z,-1.20
2022-11-20T15:12:02.813Z,-1.40
2022-11-20T15:14:35.428Z,-2.20
2022-11-20T15:17:05.237Z,-1.00
2022-11-20T15:19:35.619Z,-1.00
2022-11-20T15:22:04.973Z,-1.10
2022-11-20T15:24:35.954Z,-1.20
2022-11-20T15:27:05.575Z,-0.80
2022-11-20T15:29:34.259Z,-0.80
2022-11-20T15:32:07.986Z,-1.00
2022-11-20T15:34:41.968Z,-1.30
2022-11-20T15:37:11.365Z,-1.60
2022-11-20T15:39:47.321Z,-1.50
2022-11-20T15:42:17.549Z,-1.90
2022-11-20T15:44:46.873Z,-2.00
2022-11-20T15:47:31.871Z,-1.90
2022-11-20T15:50:02.980Z,-2.00
2022-11-20T15:52:42.243Z,-2.00
2022-11-20T15:55:14.367Z,-1.80
2022-11-20T15:57:43.684Z,-1.80
2022-11-20T16:00:17.056Z,-1.50
2022-11-20T16:02:48.637Z,-1.40
2022-11-20T16:05:20.388Z,-1.40
2022-11-20T16:07:52.230Z,-1.40
2022-11-20T16:10:23.405Z,-1.40
2022-11-20T16:13:10.137Z,-1.40
2022-11-20T16:15:50.169Z,-1.60
2022-11-20T16:18:23.286Z,-1.70
2022-11-20T16:20:55.991Z,-1.80
2022-11-20T16:23:27.570Z,-1.90
2022-11-20T16:25:59.756Z,-2.10
2022-11-20T16:28:29.335Z,-2.20
2022-11-20T16:30:58.750Z,-2.30
2022-11-20T16:33:29.220Z,-2.60
2022-11-20T16:35:58.493Z,-2.70
2022-11-20T16:38:27.795Z,-2.80
2022-11-20T16:41:04.433Z,-2.90
2022-11-20T16:43:36.180Z,-3.10
2022-11-20T16:46:07.496Z,-3.10
2022-11-20T16:48:37.688Z,-3.10
2022-11-20T16:51:11.435Z,-3.20
2022-11-20T16:53:42.196Z,-2.70
2022-11-20T16:56:16.710Z,-2.60
2022-11-20T16:58:46.663Z,-2.20
2022-11-20T17:01:17.240Z,-2.00
2022-11-20T17:03:48.334Z,-1.90
2022-11-20T17:06:19.480Z,-1.90
2022-11-20T17:08:49.465Z,-2.00
2022-11-20T17:11:21.761Z,-2.10
2022-11-20T17:13:51.896Z,-2.30
2022-11-20T17:16:22.594Z,-2.50
2022-11-20T17:18:52.260Z,-2.50
2022-11-20T17:21:22.861Z,-2.70
2022-11-20T17:23:51.892Z,-2.80
2022-11-20T17:26:24.222Z,-2.80
2022-11-20T17:28:57.012Z,-2.80
2022-11-20T17:31:26.832Z,-2.80
2022-11-20T17:33:56.673Z,-2.80
2022-11-20T17:36:26.084Z,-2.80
2022-11-20T17:38:55.126Z,-2.70
2022-11-20T17:41:27.825Z,-2.60
2022-11-20T17:43:58.159Z,-2.70
2022-11-20T17:46:29.012Z,-2.50
2022-11-20T17:48:58.790Z,-2.50
2022-11-20T17:51:29.500Z,-2.30
2022-11-20T17:54:01.227Z,-2.30
2022-11-20T17:56:52.790Z,-2.20
2022-11-20T17:59:23.984Z,-2.30
2022-11-20T18:01:56.808Z,-2.40
2022-11-20T18:04:29.031Z,-1.40
2022-11-20T18:06:58.563Z,-2.60
2022-11-20T18:09:27.984Z,-2.70
2022-11-20T18:11:58.827Z,-2.80
2022-11-20T18:14:29.835Z,-2.60
2022-11-20T18:17:02.175Z,-2.60
2022-11-20T18:19:33.151Z,-3.20
2022-11-20T18:22:06.634Z,-3.20
2022-11-20T18:24:37.134Z,-3.00
2022-11-20T18:27:10.092Z,-3.20
2022-11-20T18:29:40.373Z,-3.00
2022-11-20T18:32:10.017Z,-2.80
2022-11-20T18:34:39.985Z,-2.80
2022-11-20T18:37:10.456Z,-2.80
2022-11-20T18:39:40.025Z,-2.90
2022-11-20T18:42:45.449Z,-2.90
2022-11-20T18:45:15.665Z,-2.90
2022-11-20T18:47:45.011Z,-3.20
2022-11-20T18:50:14.782Z,-3.20
2022-11-20T18:52:47.609Z,-3.10
2022-11-20T18:55:17.595Z,-3.10
2022-11-20T18:57:48.576Z,-3.20
2022-11-20T19:00:18.432Z,-3.20
2022-11-20T19:02:48.850Z,-3.20
2022-11-20T19:05:18.192Z,-3.10
2022-11-20T19:07:49.333Z,-3.10
2022-11-20T19:10:20.998Z,-3.20
2022-11-20T19:12:53.495Z,-3.30
2022-11-20T19:15:23.509Z,-3.60
2022-11-20T19:17:52.838Z,-3.80
2022-11-20T19:20:22.043Z,-3.80
2022-11-20T19:22:54.995Z,-3.60
2022-11-20T19:25:25.182Z,-3.50
2022-11-20T19:27:56.344Z,-3.30
2022-11-20T19:30:25.940Z,-3.10
2022-11-20T19:32:58.563Z,-3.10
2022-11-20T19:35:27.996Z,-2.80
2022-11-20T19:38:00.209Z,-2.60
2022-11-20T19:40:33.562Z,-2.40
2022-11-20T19:43:05.637Z,-2.50
2022-11-20T19:45:35.865Z,-2.50
2022-11-20T19:48:07.991Z,-2.50
2022-11-20T19:50:37.986Z,-2.40
2022-11-20T19:53:07.628Z,-2.30
2022-11-20T19:55:36.958Z,-2.30
2022-11-20T19:58:08.169Z,-2.20
2022-11-20T20:00:37.668Z,-2.20
2022-11-20T20:03:06.882Z,-2.20
2022-11-20T20:05:36.490Z,-2.10
2022-11-20T20:08:06.400Z,-2.10
2022-11-20T20:10:35.790Z,-2.30
2022-11-20T20:13:05.293Z,-2.10
2022-11-20T20:15:36.061Z,-2.10
2022-11-20T20:18:05.432Z,-2.10
2022-11-20T20:20:34.839Z,-2.20
2022-11-20T20:23:07.671Z,-2.20
2022-11-20T20:25:39.266Z,-2.20
2022-11-20T20:28:09.679Z,-2.10
2022-11-20T20:30:40.622Z,-2.00
2022-11-20T20:33:10.279Z,-1.90
2022-11-20T20:35:43.423Z,-1.90
2022-11-20T20:38:12.860Z,-1.90
2022-11-20T20:40:47.518Z,-2.00
2022-11-20T20:43:17.332Z,-1.90
2022-11-20T20:45:50.294Z,-1.90
2022-11-20T20:48:24.229Z,-1.90
2022-11-20T20:50:57.270Z,-1.90
2022-11-20T20:53:28.170Z,-2.00
2022-11-20T20:55:58.257Z,-2.10
2022-11-20T20:58:28.122Z,-2.20
2022-11-20T21:01:04.257Z,-2.40
2022-11-20T21:03:49.523Z,-2.50
2022-11-20T21:06:22.759Z,-2.50
2022-11-20T21:08:52.583Z,-2.60
2022-11-20T21:11:22.552Z,-2.60
2022-11-20T21:13:52.166Z,-2.80
2022-11-20T21:16:25.330Z,-2.80
2022-11-20T21:18:54.865Z,-2.80
2022-11-20T21:21:41.061Z,-3.00
2022-11-20T21:24:10.616Z,-3.20
2022-11-20T21:26:40.195Z,-3.40
2022-11-20T21:29:11.343Z,-3.60
2022-11-20T21:31:44.057Z,-3.70
2022-11-20T21:34:14.185Z,-3.70
2022-11-20T21:36:43.635Z,-2.90
2022-11-20T21:39:13.751Z,-3.90
2022-11-20T21:41:44.047Z,-4.00
2022-11-20T21:44:30.507Z,-4.00
2022-11-20T21:47:02.224Z,-4.10
2022-11-20T21:49:31.772Z,-4.10
2022-11-20T21:52:04.441Z,-4.10
2022-11-20T21:54:36.320Z,-4.00
2022-11-20T21:57:07.828Z,-4.00
2022-11-20T21:59:37.915Z,-4.10
2022-11-20T22:02:09.711Z,-4.20
2022-11-20T22:04:39.205Z,-3.90
2022-11-20T22:07:08.357Z,-4.50
2022-11-20T22:09:37.202Z,-4.60
2022-11-20T22:12:07.331Z,-4.80
2022-11-20T22:14:35.393Z,-5.00
2022-11-20T22:17:06.648Z,-5.10
2022-11-20T22:19:37.290Z,-5.10
2022-11-20T22:22:06.337Z,-4.00
2022-11-20T22:24:35.544Z,-4.20
2022-11-20T22:27:07.263Z,-5.40
2022-11-20T22:29:36.596Z,-5.50
2022-11-20T22:32:06.600Z,-5.60
2022-11-20T22:34:37.455Z,-5.60
2022-11-20T22:37:06.755Z,-4.90
2022-11-20T22:39:36.029Z,-5.30
2022-11-20T22:42:05.067Z,-5.10
2022-11-20T22:44:34.527Z,-5.10
2022-11-20T22:47:08.690Z,-4.10
2022-11-20T22:49:42.275Z,-5.30
2022-11-20T22:52:11.255Z,-5.50
2022-11-20T22:54:39.851Z,-5.10
2022-11-20T22:57:09.515Z,-4.30
2022-11-20T22:59:40.731Z,-4.40
2022-11-20T23:02:12.772Z,-5.60
2022-11-20T23:04:42.956Z,-5.60
2022-11-20T23:07:13.783Z,-5.70
2022-11-20T23:09:42.879Z,-4.70
2022-11-20T23:12:12.377Z,-4.80
2022-11-20T23:14:41.306Z,-6.00
2022-11-20T23:17:11.373Z,-6.10
2022-11-20T23:19:40.693Z,-6.00
2022-11-20T23:22:11.147Z,-6.30
2022-11-20T23:24:40.697Z,-5.40
2022-11-20T23:27:09.724Z,-6.30
2022-11-20T23:29:38.730Z,-5.30
2022-11-20T23:32:08.138Z,-5.10
2022-11-20T23:34:37.432Z,-6.40
2022-11-20T23:37:06.637Z,-5.20
2022-11-20T23:39:37.287Z,-5.20
2022-11-20T23:42:06.380Z,-6.20
2022-11-20T23:44:35.267Z,-6.10
2022-11-20T23:47:04.399Z,-5.30
2022-11-20T23:49:34.145Z,-4.80
2022-11-20T23:52:03.864Z,-4.70
2022-11-20T23:54:35.402Z,-5.60
2022-11-20T23:57:05.986Z,-5.70
2022-11-20T23:59:34.945Z,-5.60
